Time;durP1;ratioP1;P1;durP2;ratioP2;P2;SDS_P1;SDS_P2;PMS_P1;PMS_P2;Temp;Humidity;BMP_temperature;BMP_pressure;BME280_temperature;BME280_humidity;BME280_pressure;Samples;Min_cycle;Max_cycle;Signal;HPM_P1;HPM_P2
2021/08/10 00:00:59;;;;;;;;;;;17.40;93.90;;;;;;4302722;33;42789;-80
2021/08/10 00:03:29;;;;;;;;;;;17.40;93.90;;;;;;4302194;33;43269;-81
2021/08/10 00:05:56;;;;;;;;;;;17.40;93.90;;;;;;4313737;33;43472;-80
2021/08/10 00:08:26;;;;;;;;;;;17.40;93.90;;;;;;4302467;33;43028;-80
2021/08/10 00:10:56;;;;;;;;;;;17.40;93.90;;;;;;4302599;33;43868;-81
2021/08/10 00:13:27;;;;;;;;;;;17.40;93.90;;;;;;4313806;33;43183;-81
2021/08/10 00:16:00;;;;;;;;;;;17.40;93.80;;;;;;4290406;33;20003;-80
2021/08/10 00:18:27;;;;;;;;;;;17.40;93.80;;;;;;4302191;33;43914;-80
2021/08/10 00:20:57;;;;;;;;;;;17.40;93.80;;;;;;4312965;33;43103;-80
2021/08/10 00:23:29;;;;;;;;;;;17.40;93.80;;;;;;4302002;33;42770;-81
2021/08/10 00:25:56;;;;;;;;;;;17.40;93.70;;;;;;4312915;33;43328;-81
2021/08/10 00:28:23;;;;;;;;;;;17.40;93.70;;;;;;4301909;33;43415;-80
2021/08/10 00:30:59;;;;;;;;;;;17.40;93.70;;;;;;4302017;33;44325;-81
2021/08/10 00:33:26;;;;;;;;;;;17.40;93.80;;;;;;4302139;33;42537;-81
2021/08/10 00:35:53;;;;;;;;;;;17.40;93.80;;;;;;4302108;33;42626;-81
2021/08/10 00:38:29;;;;;;;;;;;17.40;93.90;;;;;;4312644;33;42821;-80
2021/08/10 00:40:57;;;;;;;;;;;17.40;93.90;;;;;;4301925;33;41899;-80
2021/08/10 00:43:32;;;;;;;;;;;17.30;93.90;;;;;;4289403;33;42803;-80
2021/08/10 00:45:59;;;;;;;;;;;17.30;93.90;;;;;;4289785;33;20002;-80
2021/08/10 00:48:35;;;;;;;;;;;17.30;94.00;;;;;;4301632;33;42487;-80
2021/08/10 00:51:10;;;;;;;;;;;17.30;94.00;;;;;;4301662;33;43435;-82
2021/08/10 00:53:40;;;;;;;;;;;17.20;94.00;;;;;;4313208;33;44212;-81
2021/08/10 00:56:08;;;;;;;;;;;17.30;94.10;;;;;;4312778;33;43564;-80
2021/08/10 00:58:35;;;;;;;;;;;17.20;94.10;;;;;;4301761;33;46048;-81
2021/08/10 01:01:08;;;;;;;;;;;17.20;94.20;;;;;;4288420;33;43746;-80
2021/08/10 01:03:38;;;;;;;;;;;17.20;94.20;;;;;;4301356;33;42901;-81
2021/08/10 01:06:07;;;;;;;;;;;17.10;94.30;;;;;;4301355;33;42559;-80
2021/08/10 01:08:37;;;;;;;;;;;17.10;94.30;;;;;;4288291;33;45900;-80
2021/08/10 01:11:23;;;;;;;;;;;17.10;94.30;;;;;;4312248;33;44256;-80
2021/08/10 01:13:57;;;;;;;;;;;17.10;94.40;;;;;;4312668;33;44543;-81
2021/08/10 01:16:37;;;;;;;;;;;17.10;94.40;;;;;;4289070;33;43001;-80
2021/08/10 01:19:10;;;;;;;;;;;17.10;94.40;;;;;;4301759;33;44163;-80
2021/08/10 01:21:39;;;;;;;;;;;17.10;94.40;;;;;;4312251;33;43070;-80
2021/08/10 01:24:13;;;;;;;;;;;17.10;94.50;;;;;;4301225;33;42072;-81
2021/08/10 01:26:53;;;;;;;;;;;17.10;94.50;;;;;;4301402;33;42716;-81
2021/08/10 01:29:26;;;;;;;;;;;17.10;94.40;;;;;;4312613;33;43792;-80
2021/08/10 01:31:57;;;;;;;;;;;17.20;94.40;;;;;;4301344;33;43853;-80
2021/08/10 01:34:40;;;;;;;;;;;17.20;94.40;;;;;;4301191;33;44991;-83
2021/08/10 01:37:10;;;;;;;;;;;17.20;94.40;;;;;;4301152;33;44314;-81
2021/08/10 01:39:37;;;;;;;;;;;17.20;94.30;;;;;;4288033;33;44208;-88
2021/08/10 01:42:04;;;;;;;;;;;17.30;94.40;;;;;;4312283;33;43000;-81
2021/08/10 01:44:32;;;;;;;;;;;17.30;94.40;;;;;;4301388;33;43078;-82
2021/08/10 01:47:00;;;;;;;;;;;17.20;94.30;;;;;;4302366;33;19998;-83
2021/08/10 01:49:27;;;;;;;;;;;17.30;94.30;;;;;;4312302;33;43477;-83
2021/08/10 01:51:58;;;;;;;;;;;17.30;94.30;;;;;;4301543;33;44911;-87
2021/08/10 01:54:28;;;;;;;;;;;17.30;94.30;;;;;;4312363;33;45763;-82
2021/08/10 01:56:56;;;;;;;;;;;17.30;94.30;;;;;;4312051;33;42645;-82
2021/08/10 01:59:23;;;;;;;;;;;17.30;94.30;;;;;;4312353;33;43254;-82
2021/08/10 02:01:56;;;;;;;;;;;17.30;94.30;;;;;;4313656;33;43165;-83
2021/08/10 02:04:24;;;;;;;;;;;17.30;94.30;;;;;;4304439;33;43290;-82
2021/08/10 02:06:56;;;;;;;;;;;17.30;94.30;;;;;;4304317;33;43629;-83
2021/08/10 02:09:28;;;;;;;;;;;17.30;94.30;;;;;;4315147;33;45749;-82
2021/08/10 02:11:55;;;;;;;;;;;17.30;94.30;;;;;;4303746;33;44096;-82
2021/08/10 02:14:24;;;;;;;;;;;17.40;94.30;;;;;;4303683;33;42849;-81
2021/08/10 02:17:00;;;;;;;;;;;17.40;94.30;;;;;;4315239;33;43442;-83
2021/08/10 02:19:27;;;;;;;;;;;17.30;94.30;;;;;;4304284;33;43550;-83
2021/08/10 02:22:10;;;;;;;;;;;17.40;94.30;;;;;;4303998;33;43865;-81
2021/08/10 02:24:50;;;;;;;;;;;17.40;94.30;;;;;;4290857;33;44219;-84
2021/08/10 02:27:35;;;;;;;;;;;17.30;94.30;;;;;;4290971;33;46035;-82
2021/08/10 02:30:13;;;;;;;;;;;17.30;94.40;;;;;;4314836;33;43913;-84
2021/08/10 02:32:51;;;;;;;;;;;17.30;94.40;;;;;;4291041;33;44992;-85
2021/08/10 02:35:31;;;;;;;;;;;17.30;94.40;;;;;;4314936;33;44100;-86
2021/08/10 02:38:09;;;;;;;;;;;17.30;94.40;;;;;;4291215;33;43574;-85
2021/08/10 02:40:50;;;;;;;;;;;17.30;94.40;;;;;;4290293;33;45000;-85
2021/08/10 02:43:26;;;;;;;;;;;17.30;94.40;;;;;;4290464;33;43474;-86
2021/08/10 02:45:54;;;;;;;;;;;17.30;94.40;;;;;;4304004;33;46015;-84
2021/08/10 02:48:32;;;;;;;;;;;17.30;94.40;;;;;;4290563;33;43494;-87
2021/08/10 02:51:07;;;;;;;;;;;17.30;94.40;;;;;;4315875;33;21199;-86
2021/08/10 02:53:45;;;;;;;;;;;17.30;94.40;;;;;;4303652;33;45354;-85
2021/08/10 02:56:33;;;;;;;;;;;17.30;94.40;;;;;;4303558;33;45764;-85
2021/08/10 02:59:15;;;;;;;;;;;17.30;94.40;;;;;;4303867;33;43478;-85
2021/08/10 03:01:54;;;;;;;;;;;17.30;94.40;;;;;;4303429;33;45463;-86
2021/08/10 03:04:28;;;;;;;;;;;17.20;94.40;;;;;;4290552;33;46074;-87
2021/08/10 03:07:03;;;;;;;;;;;17.30;94.40;;;;;;4303115;33;42609;-86
2021/08/10 03:09:32;;;;;;;;;;;17.20;94.40;;;;;;4290786;33;43511;-87
2021/08/10 03:12:06;;;;;;;;;;;17.30;94.40;;;;;;4303181;33;43806;-86
2021/08/10 03:14:41;;;;;;;;;;;17.20;94.30;;;;;;4290131;33;42716;-86
2021/08/10 03:17:15;;;;;;;;;;;17.30;94.30;;;;;;4303431;33;44865;-86
2021/08/10 03:19:43;;;;;;;;;;;17.30;94.30;;;;;;4303560;33;44940;-87
2021/08/10 03:22:24;;;;;;;;;;;17.30;94.30;;;;;;4315129;33;20002;-86
2021/08/10 03:25:01;;;;;;;;;;;17.20;94.20;;;;;;4303346;33;43865;-86
2021/08/10 03:27:42;;;;;;;;;;;17.20;94.20;;;;;;4313385;33;43949;-85
2021/08/10 03:30:09;;;;;;;;;;;17.20;94.20;;;;;;4290221;33;43055;-84
2021/08/10 03:32:46;;;;;;;;;;;17.20;94.20;;;;;;4302720;33;43651;-86
2021/08/10 03:35:25;;;;;;;;;;;17.20;94.20;;;;;;4290010;33;45083;-84
2021/08/10 03:38:03;;;;;;;;;;;17.20;94.20;;;;;;4313947;33;45553;-84
2021/08/10 03:40:33;;;;;;;;;;;17.20;94.20;;;;;;4303069;33;44180;-82
2021/08/10 03:43:18;;;;;;;;;;;17.20;94.30;;;;;;4313913;33;43996;-82
2021/08/10 03:45:55;;;;;;;;;;;17.20;94.30;;;;;;4289892;33;44723;-83
2021/08/10 03:48:33;;;;;;;;;;;17.10;94.30;;;;;;4313509;33;45081;-85
2021/08/10 03:51:10;;;;;;;;;;;17.10;94.30;;;;;;4302923;33;44702;-85
2021/08/10 03:53:47;;;;;;;;;;;17.10;94.30;;;;;;4302463;33;42997;-86
2021/08/10 03:56:22;;;;;;;;;;;17.10;94.30;;;;;;4302853;33;44808;-85
2021/08/10 03:58:55;;;;;;;;;;;17.10;94.30;;;;;;4313553;33;43304;-83
2021/08/10 04:01:30;;;;;;;;;;;17.10;94.30;;;;;;4313175;33;43886;-85
2021/08/10 04:04:06;;;;;;;;;;;17.10;94.30;;;;;;4302490;33;43063;-80
2021/08/10 04:06:39;;;;;;;;;;;17.00;94.30;;;;;;4289201;33;43792;-82
2021/08/10 04:09:09;;;;;;;;;;;17.00;94.30;;;;;;4302740;33;44231;-85
2021/08/10 04:11:47;;;;;;;;;;;17.00;94.30;;;;;;4301972;33;44544;-85
2021/08/10 04:14:24;;;;;;;;;;;17.00;94.30;;;;;;4302507;33;44496;-84
2021/08/10 04:17:04;;;;;;;;;;;17.00;94.30;;;;;;4289091;33;44560;-80
2021/08/10 04:19:38;;;;;;;;;;;17.00;94.40;;;;;;4313858;33;42460;-82
2021/08/10 04:22:05;;;;;;;;;;;16.90;94.70;;;;;;4289545;33;43852;-80
2021/08/10 04:24:41;;;;;;;;;;;16.90;94.40;;;;;;4312751;33;43788;-84
2021/08/10 04:27:17;;;;;;;;;;;16.80;94.40;;;;;;4302251;33;43199;-81
2021/08/10 04:29:52;;;;;;;;;;;16.80;94.50;;;;;;4312996;33;44751;-81
2021/08/10 04:32:30;;;;;;;;;;;16.80;94.50;;;;;;4289167;33;43231;-80
2021/08/10 04:35:09;;;;;;;;;;;16.70;94.50;;;;;;4313143;33;43887;-83
2021/08/10 04:37:47;;;;;;;;;;;16.70;94.60;;;;;;4313206;33;44902;-83
2021/08/10 04:40:25;;;;;;;;;;;16.70;94.60;;;;;;4302104;33;42909;-80
2021/08/10 04:42:58;;;;;;;;;;;16.70;94.60;;;;;;4302066;33;44155;-81
2021/08/10 04:45:36;;;;;;;;;;;16.70;94.60;;;;;;4313426;33;43787;-82
2021/08/10 04:48:06;;;;;;;;;;;16.70;94.60;;;;;;4313643;33;44529;-84
2021/08/10 04:50:39;;;;;;;;;;;16.70;94.60;;;;;;4312678;33;42737;-84
2021/08/10 04:53:15;;;;;;;;;;;16.70;94.70;;;;;;4301916;33;45365;-81
2021/08/10 04:55:45;;;;;;;;;;;16.70;94.70;;;;;;4313432;33;20026;-80
2021/08/10 04:58:12;;;;;;;;;;;16.60;94.60;;;;;;4301610;33;43920;-81
2021/08/10 05:00:50;;;;;;;;;;;16.60;94.70;;;;;;4312709;33;44219;-82
2021/08/10 05:03:23;;;;;;;;;;;16.60;94.70;;;;;;4301703;33;43816;-83
2021/08/10 05:06:01;;;;;;;;;;;16.60;94.70;;;;;;4312764;33;44618;-82
2021/08/10 05:08:36;;;;;;;;;;;16.60;94.70;;;;;;4301893;33;45786;-81
2021/08/10 05:11:08;;;;;;;;;;;16.60;94.70;;;;;;4301536;33;43257;-82
2021/08/10 05:13:43;;;;;;;;;;;16.60;94.70;;;;;;4288792;33;44689;-81
2021/08/10 05:16:21;;;;;;;;;;;16.60;94.80;;;;;;4301769;33;43486;-82
2021/08/10 05:18:59;;;;;;;;;;;16.60;94.80;;;;;;4301751;33;44397;-82
2021/08/10 05:21:38;;;;;;;;;;;16.50;94.70;;;;;;4312786;33;42949;-82
2021/08/10 05:24:19;;;;;;;;;;;16.60;94.80;;;;;;4288600;33;45371;-84
2021/08/10 05:26:57;;;;;;;;;;;16.60;94.80;;;;;;4302090;33;20135;-80
2021/08/10 05:29:30;;;;;;;;;;;16.60;94.80;;;;;;4301623;33;44831;-81
2021/08/10 05:32:08;;;;;;;;;;;16.60;94.80;;;;;;4312291;33;44080;-82
2021/08/10 05:34:41;;;;;;;;;;;16.60;94.80;;;;;;4301659;33;43688;-83
2021/08/10 05:37:37;;;;;;;;;;;16.60;94.90;;;;;;4313588;33;43473;-84
2021/08/10 05:40:04;;;;;;;;;;;16.60;94.90;;;;;;4312077;33;43104;-80
2021/08/10 05:42:40;;;;;;;;;;;16.60;95.00;;;;;;4301141;33;43960;-80
2021/08/10 05:45:12;;;;;;;;;;;16.60;95.00;;;;;;4301556;33;44259;-81
2021/08/10 05:48:00;;;;;;;;;;;16.60;95.00;;;;;;4312472;33;43986;-81
2021/08/10 05:50:32;;;;;;;;;;;16.60;95.00;;;;;;4288395;33;45864;-80
2021/08/10 05:53:08;;;;;;;;;;;16.60;95.00;;;;;;4301436;33;44744;-80
2021/08/10 05:55:48;;;;;;;;;;;16.60;95.10;;;;;;4288059;33;43190;-81
2021/08/10 05:58:26;;;;;;;;;;;16.60;95.10;;;;;;4313291;33;20371;-80
2021/08/10 06:01:04;;;;;;;;;;;16.60;95.10;;;;;;4288462;33;44594;-83
2021/08/10 06:03:45;;;;;;;;;;;16.70;95.20;;;;;;4311836;33;44249;-81
2021/08/10 06:06:13;;;;;;;;;;;16.60;95.20;;;;;;4301430;33;44270;-81
2021/08/10 06:08:46;;;;;;;;;;;16.60;95.20;;;;;;4312277;33;46033;-80
2021/08/10 06:11:24;;;;;;;;;;;16.60;95.20;;;;;;4288173;33;45142;-82
2021/08/10 06:14:02;;;;;;;;;;;16.70;95.30;;;;;;4312160;33;44707;-82
2021/08/10 06:16:37;;;;;;;;;;;16.70;95.30;;;;;;4301253;33;45167;-81
2021/08/10 06:19:16;;;;;;;;;;;16.70;95.30;;;;;;4301281;33;43172;-81
2021/08/10 06:21:51;;;;;;;;;;;16.70;95.30;;;;;;4288540;33;43731;-80
2021/08/10 06:24:27;;;;;;;;;;;16.70;95.30;;;;;;4301544;33;43897;-80
2021/08/10 06:27:00;;;;;;;;;;;16.70;95.30;;;;;;4287573;33;46007;-81
2021/08/10 06:29:38;;;;;;;;;;;16.80;95.30;;;;;;4311860;33;44928;-80
2021/08/10 06:32:05;;;;;;;;;;;16.80;95.30;;;;;;4288193;33;45468;-80
2021/08/10 06:34:43;;;;;;;;;;;16.80;95.30;;;;;;4300705;33;44187;-80
2021/08/10 06:37:24;;;;;;;;;;;16.80;95.30;;;;;;4301171;33;43204;-80
2021/08/10 06:40:02;;;;;;;;;;;16.90;95.40;;;;;;4312394;33;44727;-81
2021/08/10 06:42:35;;;;;;;;;;;16.90;95.40;;;;;;4301135;33;44325;-80
2021/08/10 06:45:13;;;;;;;;;;;16.90;95.40;;;;;;4312081;33;44668;-80
2021/08/10 06:47:55;;;;;;;;;;;17.00;95.40;;;;;;4289535;33;44530;-80
2021/08/10 06:50:31;;;;;;;;;;;16.90;95.30;;;;;;4303870;33;43527;-80
2021/08/10 06:53:06;;;;;;;;;;;17.00;95.40;;;;;;4290733;33;45907;-80
2021/08/10 06:55:47;;;;;;;;;;;16.90;95.30;;;;;;4314487;33;45848;-80
2021/08/10 06:58:25;;;;;;;;;;;17.00;95.40;;;;;;4290701;33;43647;-80
2021/08/10 07:00:52;;;;;;;;;;;17.00;95.40;;;;;;4302956;33;42923;-80
2021/08/10 07:03:20;;;;;;;;;;;17.00;95.40;;;;;;4290017;33;44897;-81
2021/08/10 07:05:58;;;;;;;;;;;17.00;95.40;;;;;;4314450;33;44790;-81
2021/08/10 07:08:36;;;;;;;;;;;17.00;95.40;;;;;;4303480;33;45157;-81
2021/08/10 07:11:12;;;;;;;;;;;17.00;95.50;;;;;;4303517;33;43259;-82
2021/08/10 07:13:47;;;;;;;;;;;17.00;95.50;;;;;;4290459;33;44288;-81
2021/08/10 07:16:26;;;;;;;;;;;17.10;95.50;;;;;;4314166;33;45732;-81
2021/08/10 07:19:04;;;;;;;;;;;17.00;95.50;;;;;;4314352;33;43480;-81
2021/08/10 07:21:42;;;;;;;;;;;17.00;95.50;;;;;;4303289;33;45516;-82
2021/08/10 07:24:09;;;;;;;;;;;17.10;95.60;;;;;;4303079;33;42794;-82
2021/08/10 07:26:42;;;;;;;;;;;17.10;95.60;;;;;;4289842;33;44245;-82
2021/08/10 07:29:23;;;;;;;;;;;17.10;95.60;;;;;;4313934;33;43474;-81
2021/08/10 07:31:57;;;;;;;;;;;17.10;95.60;;;;;;4290781;33;20058;-81
2021/08/10 07:34:35;;;;;;;;;;;17.10;95.60;;;;;;4290118;33;45860;-82
2021/08/10 07:37:25;;;;;;;;;;;17.10;95.60;;;;;;4312929;33;43016;-80
2021/08/10 07:40:00;;;;;;;;;;;17.10;95.60;;;;;;4302619;33;42954;-83
2021/08/10 07:42:42;;;;;;;;;;;17.10;95.70;;;;;;4313286;33;42905;-82
2021/08/10 07:45:23;;;;;;;;;;;17.10;95.70;;;;;;4289974;33;44891;-81
2021/08/10 07:47:54;;;;;;;;;;;17.20;95.70;;;;;;4314500;33;43891;-80
2021/08/10 07:50:33;;;;;;;;;;;17.20;95.80;;;;;;4313863;33;42771;-81
2021/08/10 07:53:03;;;;;;;;;;;17.10;95.70;;;;;;4313648;33;42823;-83
2021/08/10 07:55:41;;;;;;;;;;;17.20;95.80;;;;;;4289478;33;42927;-82
2021/08/10 07:58:19;;;;;;;;;;;17.20;95.80;;;;;;4313540;33;45619;-82
2021/08/10 08:00:51;;;;;;;;;;;17.20;95.80;;;;;;4302543;33;43509;-82
2021/08/10 08:03:33;;;;;;;;;;;17.20;95.80;;;;;;4290318;33;20113;-83
2021/08/10 08:06:11;;;;;;;;;;;17.20;95.80;;;;;;4289742;33;45999;-82
2021/08/10 08:08:47;;;;;;;;;;;17.20;95.80;;;;;;4302449;33;43335;-82
2021/08/10 08:11:26;;;;;;;;;;;17.20;95.80;;;;;;4302472;33;43947;-81
2021/08/10 08:14:05;;;;;;;;;;;17.20;95.80;;;;;;4313652;33;43911;-81
2021/08/10 08:16:43;;;;;;;;;;;17.20;95.80;;;;;;4302080;33;43792;-82
2021/08/10 08:19:21;;;;;;;;;;;17.20;95.80;;;;;;4302647;33;43443;-82
2021/08/10 08:21:48;;;;;;;;;;;17.20;95.90;;;;;;4302647;33;42040;-81
2021/08/10 08:24:23;;;;;;;;;;;17.30;95.90;;;;;;4302318;33;45664;-82
2021/08/10 08:27:03;;;;;;;;;;;17.20;95.90;;;;;;4289343;33;45568;-82
2021/08/10 08:29:42;;;;;;;;;;;17.20;95.90;;;;;;4312809;33;43514;-82
2021/08/10 08:32:21;;;;;;;;;;;17.20;95.90;;;;;;4288914;33;42663;-82
2021/08/10 08:34:56;;;;;;;;;;;17.20;95.90;;;;;;4314308;33;20005;-81
2021/08/10 08:37:32;;;;;;;;;;;17.30;96.00;;;;;;4288754;33;44564;-81
2021/08/10 08:40:10;;;;;;;;;;;17.30;96.00;;;;;;4313179;33;43861;-81
2021/08/10 08:42:46;;;;;;;;;;;17.30;95.90;;;;;;4302334;33;44205;-81
2021/08/10 08:45:36;;;;;;;;;;;17.30;95.90;;;;;;4313109;33;44478;-81
2021/08/10 08:48:23;;;;;;;;;;;17.30;95.90;;;;;;4302268;33;29742;-81
2021/08/10 08:51:02;;;;;;;;;;;17.30;96.00;;;;;;4301986;33;44656;-81
2021/08/10 08:53:33;;;;;;;;;;;17.30;95.90;;;;;;4289223;33;44300;-81
2021/08/10 08:56:06;;;;;;;;;;;17.30;96.00;;;;;;4312865;33;42559;-80
2021/08/10 08:58:38;;;;;;;;;;;17.30;96.00;;;;;;4288455;33;42528;-80
2021/08/10 09:01:14;;;;;;;;;;;17.30;96.00;;;;;;4313085;33;43214;-81
2021/08/10 09:03:44;;;;;;;;;;;17.40;96.00;;;;;;4312650;33;43915;-80
2021/08/10 09:06:19;;;;;;;;;;;17.40;96.00;;;;;;4314048;33;20367;-82
2021/08/10 09:09:00;;;;;;;;;;;17.40;96.00;;;;;;4288729;33;42913;-80
2021/08/10 09:11:35;;;;;;;;;;;17.40;96.10;;;;;;4312379;33;43157;-83
2021/08/10 09:14:03;;;;;;;;;;;17.40;96.00;;;;;;4302003;33;43957;-82
2021/08/10 09:16:35;;;;;;;;;;;17.40;96.00;;;;;;4312658;33;44558;-85
2021/08/10 09:19:11;;;;;;;;;;;17.40;96.00;;;;;;4288635;33;44341;-85
2021/08/10 09:21:40;;;;;;;;;;;17.50;96.00;;;;;;4288098;33;44109;-83
2021/08/10 09:24:14;;;;;;;;;;;17.50;96.00;;;;;;4312401;33;45761;-82
2021/08/10 09:26:43;;;;;;;;;;;17.50;96.40;;;;;;4288690;33;43237;-81
2021/08/10 09:29:18;;;;;;;;;;;17.50;96.00;;;;;;4301100;33;43779;-81
2021/08/10 09:31:48;;;;;;;;;;;17.50;96.00;;;;;;4288848;33;43964;-82
2021/08/10 09:34:27;;;;;;;;;;;17.50;96.00;;;;;;4311998;33;42827;-82
2021/08/10 09:36:58;;;;;;;;;;;17.50;96.00;;;;;;4289366;33;20453;-80
2021/08/10 09:39:38;;;;;;;;;;;17.50;96.00;;;;;;4312200;33;44890;-81
2021/08/10 09:42:13;;;;;;;;;;;17.60;96.10;;;;;;4301448;33;44948;-83
2021/08/10 09:45:04;;;;;;;;;;;17.60;96.10;;;;;;4301581;33;43951;-80
2021/08/10 09:47:39;;;;;;;;;;;17.60;96.10;;;;;;4288063;33;43115;-80
2021/08/10 09:50:20;;;;;;;;;;;17.60;96.10;;;;;;4312420;33;45546;-83
2021/08/10 09:52:47;;;;;;;;;;;17.70;96.10;;;;;;4301879;33;43692;-81
2021/08/10 09:55:17;;;;;;;;;;;17.70;96.00;;;;;;4288229;33;43621;-81
2021/08/10 09:58:02;;;;;;;;;;;17.70;96.00;;;;;;4288343;33;42180;-80
2021/08/10 10:00:39;;;;;;;;;;;17.70;96.00;;;;;;4301394;33;44195;-81
2021/08/10 10:03:22;;;;;;;;;;;17.70;96.00;;;;;;4287856;33;44728;-81
2021/08/10 10:05:57;;;;;;;;;;;17.70;96.10;;;;;;4288279;33;45078;-81
2021/08/10 10:08:34;;;;;;;;;;;17.70;96.00;;;;;;4302032;33;20007;-80
2021/08/10 10:11:15;;;;;;;;;;;17.80;96.10;;;;;;4312303;33;43264;-81
2021/08/10 10:13:43;;;;;;;;;;;17.80;96.10;;;;;;4288421;33;44240;-83
2021/08/10 10:16:21;;;;;;;;;;;17.80;96.10;;;;;;4311891;33;44523;-82
2021/08/10 10:18:52;;;;;;;;;;;17.80;96.10;;;;;;4288249;33;44821;-83
2021/08/10 10:21:23;;;;;;;;;;;17.90;96.10;;;;;;4312195;33;43449;-83
2021/08/10 10:23:52;;;;;;;;;;;17.90;96.10;;;;;;4291097;33;45360;-83
2021/08/10 10:26:28;;;;;;;;;;;17.90;96.10;;;;;;4291083;33;45828;-81
2021/08/10 10:29:04;;;;;;;;;;;18.00;96.10;;;;;;4290503;33;43209;-81
2021/08/10 10:31:40;;;;;;;;;;;18.00;96.00;;;;;;4291005;33;44442;-82
2021/08/10 10:34:16;;;;;;;;;;;18.10;96.00;;;;;;4290317;33;44964;-86
2021/08/10 10:36:52;;;;;;;;;;;18.10;96.00;;;;;;4314618;33;43831;-82
2021/08/10 10:39:34;;;;;;;;;;;18.10;96.00;;;;;;4304862;33;20034;-82
2021/08/10 10:42:13;;;;;;;;;;;18.10;96.00;;;;;;4291140;33;43809;-82
2021/08/10 10:44:51;;;;;;;;;;;18.20;96.00;;;;;;4290804;33;44858;-83
2021/08/10 10:47:24;;;;;;;;;;;18.20;96.00;;;;;;4314889;33;44913;-82
2021/08/10 10:49:57;;;;;;;;;;;18.30;95.90;;;;;;4315123;33;46061;-82
2021/08/10 10:52:30;;;;;;;;;;;18.30;95.80;;;;;;4314592;33;45773;-81
2021/08/10 10:55:07;;;;;;;;;;;18.30;95.80;;;;;;4290661;33;44461;-81
2021/08/10 10:57:48;;;;;;;;;;;18.30;95.70;;;;;;4314661;33;43050;-82
2021/08/10 11:00:27;;;;;;;;;;;18.30;95.70;;;;;;4303363;33;44278;-80
2021/08/10 11:03:25;;;;;;;;;;;18.30;95.70;;;;;;4303060;33;45803;-84
2021/08/10 11:06:16;;;;;;;;;;;18.30;95.70;;;;;;4286876;33;44494;-81
2021/08/10 11:08:48;;;;;;;;;;;18.30;95.70;;;;;;4290678;33;44280;-80
2021/08/10 11:11:34;;;;;;;;;;;18.30;95.70;;;;;;4290251;33;45745;-80
2021/08/10 11:14:01;;;;;;;;;;;18.30;95.70;;;;;;4314613;33;45809;-81
2021/08/10 11:16:51;;;;;;;;;;;18.30;95.70;;;;;;4289964;33;44368;-81
2021/08/10 11:19:35;;;;;;;;;;;18.30;95.70;;;;;;4290176;33;45226;-81
2021/08/10 11:22:18;;;;;;;;;;;18.40;95.80;;;;;;4289883;33;44184;-81
2021/08/10 11:24:59;;;;;;;;;;;18.40;95.80;;;;;;4313792;33;43092;-81
2021/08/10 11:27:43;;;;;;;;;;;18.40;95.80;;;;;;4290239;33;45812;-86
2021/08/10 11:30:33;;;;;;;;;;;18.40;95.70;;;;;;4314281;33;44372;-82
2021/08/10 11:33:05;;;;;;;;;;;18.50;95.60;;;;;;4286669;33;43294;-81
2021/08/10 11:35:40;;;;;;;;;;;18.50;95.60;;;;;;4302603;33;42858;-81
2021/08/10 11:38:10;;;;;;;;;;;18.50;95.60;;;;;;4289603;33;45090;-81
2021/08/10 11:40:50;;;;;;;;;;;18.50;95.60;;;;;;4302468;33;43431;-81
2021/08/10 11:43:23;;;;;;;;;;;18.50;95.50;;;;;;4302590;33;44061;-81
2021/08/10 11:45:50;;;;;;;;;;;18.50;95.50;;;;;;4302679;33;42689;-81
2021/08/10 11:48:22;;;;;;;;;;;18.50;95.50;;;;;;4302489;33;44228;-85
2021/08/10 11:50:53;;;;;;;;;;;18.60;95.60;;;;;;4289541;33;45994;-86
2021/08/10 11:53:35;;;;;;;;;;;18.60;95.50;;;;;;4313302;33;45290;-80
2021/08/10 11:56:25;;;;;;;;;;;18.60;95.50;;;;;;4290222;33;43963;-80
2021/08/10 11:58:58;;;;;;;;;;;18.60;95.50;;;;;;4313788;33;43692;-80
2021/08/10 12:01:28;;;;;;;;;;;18.60;95.50;;;;;;4302415;33;34805;-80
2021/08/10 12:04:10;;;;;;;;;;;18.70;95.50;;;;;;4302898;33;44100;-80
2021/08/10 12:06:43;;;;;;;;;;;18.70;95.50;;;;;;4289661;33;44218;-81
2021/08/10 12:09:18;;;;;;;;;;;18.70;95.50;;;;;;4289510;33;42736;-81
2021/08/10 12:11:50;;;;;;;;;;;18.70;95.50;;;;;;4290002;33;20064;-81
2021/08/10 12:14:25;;;;;;;;;;;18.70;95.50;;;;;;4289176;33;42718;-82
2021/08/10 12:17:00;;;;;;;;;;;18.80;95.50;;;;;;4289652;33;44395;-80
2021/08/10 12:19:50;;;;;;;;;;;18.80;95.50;;;;;;4289373;33;44398;-80
2021/08/10 12:22:28;;;;;;;;;;;18.80;95.40;;;;;;4302326;33;46179;-81
2021/08/10 12:24:58;;;;;;;;;;;18.90;95.40;;;;;;4313374;33;44367;-82
2021/08/10 12:27:31;;;;;;;;;;;18.90;95.30;;;;;;4289005;33;44696;-81
2021/08/10 12:30:03;;;;;;;;;;;19.00;95.30;;;;;;4289457;33;45087;-82
2021/08/10 12:32:41;;;;;;;;;;;19.00;95.30;;;;;;4288977;33;43012;-82
2021/08/10 12:35:12;;;;;;;;;;;19.10;95.30;;;;;;4313317;33;42637;-82
2021/08/10 12:37:51;;;;;;;;;;;19.10;95.20;;;;;;4288876;33;44450;-82
2021/08/10 12:40:23;;;;;;;;;;;19.20;95.20;;;;;;4312978;33;43046;-81
2021/08/10 12:42:54;;;;;;;;;;;19.20;95.20;;;;;;4303235;33;20043;-80
2021/08/10 12:45:35;;;;;;;;;;;19.20;95.20;;;;;;4312523;33;43087;-80
2021/08/10 12:48:27;;;;;;;;;;;19.20;95.10;;;;;;4302129;33;44876;-80
2021/08/10 12:50:55;;;;;;;;;;;19.20;95.10;;;;;;4302291;33;45693;-83
2021/08/10 12:53:28;;;;;;;;;;;19.20;95.10;;;;;;4288907;33;42438;-80
2021/08/10 12:56:03;;;;;;;;;;;19.20;95.10;;;;;;4288521;33;43214;-80
2021/08/10 12:58:37;;;;;;;;;;;19.30;95.10;;;;;;4288847;33;44540;-81
2021/08/10 13:01:12;;;;;;;;;;;19.30;95.10;;;;;;4312923;33;44861;-84
2021/08/10 13:03:45;;;;;;;;;;;19.30;95.00;;;;;;4288628;33;43470;-81
2021/08/10 13:06:32;;;;;;;;;;;19.40;95.10;;;;;;4288499;33;44982;-83
2021/08/10 13:09:10;;;;;;;;;;;19.40;95.00;;;;;;4289014;33;45046;-82
2021/08/10 13:11:47;;;;;;;;;;;19.40;95.00;;;;;;4312279;33;42905;-85
2021/08/10 13:14:25;;;;;;;;;;;19.40;94.90;;;;;;4288718;33;42613;-82
2021/08/10 13:16:53;;;;;;;;;;;19.50;95.00;;;;;;4312792;33;46083;-83
2021/08/10 13:19:33;;;;;;;;;;;19.50;95.00;;;;;;4289101;33;44814;-82
2021/08/10 13:22:08;;;;;;;;;;;19.50;94.90;;;;;;4301775;33;45515;-81
2021/08/10 13:24:57;;;;;;;;;;;19.60;94.90;;;;;;4301268;33;43245;-83
2021/08/10 13:27:32;;;;;;;;;;;19.60;94.80;;;;;;4301668;33;46133;-82
2021/08/10 13:30:22;;;;;;;;;;;19.60;94.80;;;;;;4290397;33;45233;-84
2021/08/10 13:33:30;;;;;;;;;;;19.70;94.70;;;;;;4312429;33;43323;-81
2021/08/10 13:36:09;;;;;;;;;;;19.70;94.50;;;;;;4288299;33;45424;-83
2021/08/10 13:38:45;;;;;;;;;;;19.80;94.60;;;;;;4313051;33;44382;-82
2021/08/10 13:41:12;;;;;;;;;;;19.80;94.70;;;;;;4287956;33;44183;-86
2021/08/10 13:43:48;;;;;;;;;;;19.90;94.50;;;;;;4313389;33;20010;-86
2021/08/10 13:46:28;;;;;;;;;;;19.90;94.40;;;;;;4288499;33;43479;-85
2021/08/10 13:49:04;;;;;;;;;;;19.90;94.30;;;;;;4312044;33;44087;-82
2021/08/10 13:51:40;;;;;;;;;;;20.00;94.50;;;;;;4288355;33;42514;-85
2021/08/10 13:54:14;;;;;;;;;;;20.00;94.30;;;;;;4301264;33;43722;-85
2021/08/10 13:56:49;;;;;;;;;;;20.10;94.40;;;;;;4289900;33;44053;-82
2021/08/10 13:59:20;;;;;;;;;;;20.10;94.30;;;;;;4306153;33;46175;-82
2021/08/10 14:01:54;;;;;;;;;;;20.10;94.10;;;;;;4293504;33;44141;-83
2021/08/10 14:04:28;;;;;;;;;;;20.10;94.30;;;;;;4316733;33;43398;-84
2021/08/10 14:06:56;;;;;;;;;;;20.20;94.30;;;;;;4317063;33;44573;-83
2021/08/10 14:09:32;;;;;;;;;;;20.20;94.30;;;;;;4316930;33;41858;-81
2021/08/10 14:12:00;;;;;;;;;;;20.20;94.30;;;;;;4305908;33;44045;-83
2021/08/10 14:14:27;;;;;;;;;;;20.20;94.20;;;;;;4318003;33;20049;-85
2021/08/10 14:16:54;;;;;;;;;;;20.20;94.10;;;;;;4293021;33;44930;-82
2021/08/10 14:19:21;;;;;;;;;;;20.30;94.20;;;;;;4317098;33;44231;-82
2021/08/10 14:21:48;;;;;;;;;;;20.30;94.10;;;;;;4292490;33;43565;-86
2021/08/10 14:24:18;;;;;;;;;;;20.30;94.10;;;;;;4305535;33;44985;-83
2021/08/10 14:26:45;;;;;;;;;;;20.30;94.10;;;;;;4317086;33;43527;-85
2021/08/10 14:29:12;;;;;;;;;;;20.30;94.10;;;;;;4316494;33;42601;-81
2021/08/10 14:31:42;;;;;;;;;;;20.30;94.10;;;;;;4306082;33;43242;-80
2021/08/10 14:34:15;;;;;;;;;;;20.30;94.10;;;;;;4292390;33;43983;-81
2021/08/10 14:36:46;;;;;;;;;;;20.30;94.10;;;;;;4316853;33;44087;-82
2021/08/10 14:39:13;;;;;;;;;;;20.30;93.90;;;;;;4317185;33;44499;-84
2021/08/10 14:41:41;;;;;;;;;;;20.30;94.00;;;;;;4316808;33;44444;-85
2021/08/10 14:44:08;;;;;;;;;;;20.30;94.00;;;;;;4317123;33;44247;-85
2021/08/10 14:46:41;;;;;;;;;;;20.30;94.00;;;;;;4305855;33;43456;-85
2021/08/10 14:49:11;;;;;;;;;;;20.40;94.00;;;;;;4293226;33;43607;-81
2021/08/10 14:51:41;;;;;;;;;;;20.40;94.00;;;;;;4316480;33;43540;-82
2021/08/10 14:54:08;;;;;;;;;;;20.40;94.00;;;;;;4305508;33;43437;-84
2021/08/10 14:56:38;;;;;;;;;;;20.30;94.00;;;;;;4316070;33;43765;-86
2021/08/10 14:59:06;;;;;;;;;;;20.40;93.90;;;;;;4305860;33;43179;-80
2021/08/10 15:01:33;;;;;;;;;;;20.40;94.00;;;;;;4292074;33;45805;-82